CCA351 ZPPP-ZYTX
Flight info
| Callsign | CCA351 |
|---|---|
| Flight time | 3h 27m |
| Altitude | FL391 |
| Route | DAD9Z DADOL W144 IGNAK W179 WFX W233 AGULU W81 APIMI W275 WJC G212 MUDAM G332 CHG A575 OMDUS OMD71A |
| Aircraft | B744/H-CDGORTWZ/NB1D1 |
Departure
| Time | 2026-05-08 10:54 |
|---|---|
| Airport | Kunming Changshui International Airport (ZPPP) |
Arrival
| Time | 2026-05-08 14:21 |
|---|---|
| Airport | Shenyang Taoxian International Airport (ZYTX) |
| Time | Latitude | Longitude | Altitude | Speed | Heading |
|---|---|---|---|---|---|
| 2026-05-08 10:53 | 25.10225 | 102.91748 | 6916 ft | 4 kts | 354° |
| 2026-05-08 10:53 | 25.10270 | 102.91758 | 6916 ft | 7 kts | 25° |
| 2026-05-08 10:53 | 25.10317 | 102.91789 | 6916 ft | 14 kts | 36° |
| 2026-05-08 10:54 | 25.10590 | 102.92025 | 6916 ft | 87 kts | 38° |
| 2026-05-08 10:54 | 25.11263 | 102.92610 | 6916 ft | 158 kts | 38° |
| 2026-05-08 10:54 | 25.12259 | 102.93478 | 7115 ft | 195 kts | 38° |
| 2026-05-08 10:54 | 25.13326 | 102.94407 | 7623 ft | 195 kts | 38° |
| 2026-05-08 10:55 | 25.14392 | 102.95333 | 8018 ft | 196 kts | 38° |
| 2026-05-08 10:55 | 25.15528 | 102.96139 | 8394 ft | 194 kts | 23° |
| 2026-05-08 10:55 | 25.16816 | 102.96415 | 8841 ft | 186 kts | 4° |
| 2026-05-08 10:55 | 25.18071 | 102.96335 | 9265 ft | 177 kts | 354° |
| 2026-05-08 10:56 | 25.19270 | 102.96188 | 9663 ft | 170 kts | 347° |
| 2026-05-08 10:56 | 25.20446 | 102.96026 | 9869 ft | 174 kts | 346° |
| 2026-05-08 10:56 | 25.21671 | 102.95856 | 10015 ft | 181 kts | 346° |
| 2026-05-08 10:56 | 25.22939 | 102.95681 | 10215 ft | 187 kts | 345° |
| 2026-05-08 10:57 | 25.24254 | 102.95500 | 10409 ft | 195 kts | 346° |
| 2026-05-08 10:57 | 25.25624 | 102.95313 | 10613 ft | 202 kts | 346° |
| 2026-05-08 10:57 | 25.28515 | 102.94918 | 10980 ft | 216 kts | 346° |
| 2026-05-08 10:58 | 25.30028 | 102.94712 | 11137 ft | 223 kts | 346° |
| 2026-05-08 10:58 | 25.31595 | 102.94499 | 11278 ft | 231 kts | 346° |
| 2026-05-08 10:58 | 25.33209 | 102.94280 | 11439 ft | 238 kts | 347° |
| 2026-05-08 10:58 | 25.34884 | 102.94052 | 11586 ft | 247 kts | 347° |
| 2026-05-08 10:59 | 25.36613 | 102.93818 | 11730 ft | 255 kts | 347° |
| 2026-05-08 10:59 | 25.38400 | 102.93560 | 11864 ft | 263 kts | 345° |
| 2026-05-08 10:59 | 25.40078 | 102.92834 | 11930 ft | 260 kts | 321° |
| 2026-05-08 10:59 | 25.41407 | 102.91481 | 12102 ft | 263 kts | 307° |
| 2026-05-08 11:00 | 25.42553 | 102.89867 | 12233 ft | 272 kts | 301° |
| 2026-05-08 11:00 | 25.43616 | 102.88099 | 12354 ft | 283 kts | 298° |
| 2026-05-08 11:00 | 25.44695 | 102.86230 | 12537 ft | 295 kts | 299° |
| 2026-05-08 11:00 | 25.45858 | 102.84309 | 12790 ft | 310 kts | 300° |
| 2026-05-08 11:01 | 25.47129 | 102.82283 | 13011 ft | 330 kts | 301° |
| 2026-05-08 11:01 | 25.48729 | 102.80353 | 13216 ft | 357 kts | 317° |
| 2026-05-08 11:01 | 25.51002 | 102.79026 | 13456 ft | 386 kts | 337° |
| 2026-05-08 11:01 | 25.53707 | 102.78597 | 14077 ft | 404 kts | 356° |
| 2026-05-08 11:02 | 25.56514 | 102.79079 | 14918 ft | 414 kts | 10° |
| 2026-05-08 11:02 | 25.61263 | 102.80697 | 16407 ft | 420 kts | 10° |
| 2026-05-08 11:02 | 25.62478 | 102.81036 | 16757 ft | 421 kts | 8° |
| 2026-05-08 11:03 | 25.65339 | 102.81693 | 17574 ft | 422 kts | 5° |
| 2026-05-08 11:03 | 25.68018 | 102.82219 | 18306 ft | 426 kts | 4° |
| 2026-05-08 11:03 | 25.70937 | 102.82876 | 19056 ft | 435 kts | 8° |
| 2026-05-08 11:03 | 25.73821 | 102.84012 | 19776 ft | 446 kts | 17° |
| 2026-05-08 11:04 | 25.76658 | 102.85483 | 20388 ft | 457 kts | 20° |
| 2026-05-08 11:04 | 25.79500 | 102.87152 | 20845 ft | 469 kts | 22° |
| 2026-05-08 11:04 | 25.82373 | 102.88928 | 21378 ft | 478 kts | 23° |
| 2026-05-08 11:04 | 25.85298 | 102.90723 | 21918 ft | 485 kts | 22° |
| 2026-05-08 11:05 | 25.88268 | 102.92518 | 22471 ft | 491 kts | 22° |
| 2026-05-08 11:05 | 25.91284 | 102.94327 | 23010 ft | 497 kts | 22° |
| 2026-05-08 11:05 | 25.94348 | 102.96158 | 23539 ft | 503 kts | 22° |
| 2026-05-08 11:05 | 25.97433 | 102.97997 | 24066 ft | 509 kts | 22° |
| 2026-05-08 11:06 | 26.00566 | 102.99863 | 24577 ft | 514 kts | 22° |
| 2026-05-08 11:06 | 26.03735 | 103.01747 | 25065 ft | 519 kts | 21° |
| 2026-05-08 11:06 | 26.06922 | 103.03634 | 25649 ft | 522 kts | 21° |
| 2026-05-08 11:06 | 26.10117 | 103.05530 | 26207 ft | 525 kts | 21° |
| 2026-05-08 11:07 | 26.13361 | 103.07461 | 26727 ft | 529 kts | 21° |
| 2026-05-08 11:07 | 26.16606 | 103.09394 | 27234 ft | 533 kts | 21° |
| 2026-05-08 11:07 | 26.19881 | 103.11347 | 27722 ft | 536 kts | 21° |
| 2026-05-08 11:07 | 26.23170 | 103.13303 | 28184 ft | 539 kts | 21° |
| 2026-05-08 11:08 | 26.26482 | 103.15274 | 28622 ft | 542 kts | 21° |
| 2026-05-08 11:08 | 26.29807 | 103.17261 | 29029 ft | 545 kts | 21° |
| 2026-05-08 11:08 | 26.33146 | 103.19260 | 29432 ft | 548 kts | 21° |
| 2026-05-08 11:08 | 26.36500 | 103.21270 | 29814 ft | 550 kts | 21° |
| 2026-05-08 11:09 | 26.39876 | 103.23295 | 30157 ft | 553 kts | 21° |
| 2026-05-08 11:09 | 26.43264 | 103.25328 | 30501 ft | 555 kts | 21° |
| 2026-05-08 11:09 | 26.46654 | 103.27362 | 30882 ft | 556 kts | 21° |
| 2026-05-08 11:09 | 26.50048 | 103.29399 | 31387 ft | 554 kts | 21° |
| 2026-05-08 11:10 | 26.53444 | 103.31379 | 31933 ft | 548 kts | 19° |
| 2026-05-08 11:10 | 26.56853 | 103.33254 | 32322 ft | 548 kts | 18° |
| 2026-05-08 11:10 | 26.60275 | 103.35128 | 32655 ft | 549 kts | 19° |
| 2026-05-08 11:10 | 26.63682 | 103.37011 | 33101 ft | 547 kts | 19° |
| 2026-05-08 11:11 | 26.67079 | 103.38898 | 33494 ft | 546 kts | 20° |
| 2026-05-08 11:11 | 26.70462 | 103.40784 | 33868 ft | 545 kts | 20° |
| 2026-05-08 11:11 | 26.73804 | 103.42650 | 34225 ft | 544 kts | 20° |
| 2026-05-08 11:11 | 26.77224 | 103.44562 | 34584 ft | 543 kts | 20° |
| 2026-05-08 11:12 | 26.80595 | 103.46448 | 34935 ft | 542 kts | 20° |
| 2026-05-08 11:12 | 26.83962 | 103.48320 | 35282 ft | 541 kts | 20° |
| 2026-05-08 11:12 | 26.87328 | 103.50197 | 35605 ft | 540 kts | 21° |
| 2026-05-08 11:12 | 26.90680 | 103.52071 | 35920 ft | 540 kts | 21° |
| 2026-05-08 11:13 | 26.94036 | 103.53950 | 36218 ft | 539 kts | 21° |
| 2026-05-08 11:13 | 26.97365 | 103.55816 | 36520 ft | 538 kts | 21° |
| 2026-05-08 11:13 | 27.00711 | 103.57694 | 36829 ft | 536 kts | 21° |
| 2026-05-08 11:13 | 27.04038 | 103.59559 | 37097 ft | 535 kts | 21° |
| 2026-05-08 11:14 | 27.07354 | 103.61413 | 37407 ft | 533 kts | 21° |
| 2026-05-08 11:14 | 27.10664 | 103.63272 | 37597 ft | 534 kts | 21° |
| 2026-05-08 11:14 | 27.13984 | 103.65141 | 37823 ft | 533 kts | 22° |
| 2026-05-08 11:14 | 27.17283 | 103.67002 | 38056 ft | 532 kts | 22° |
| 2026-05-08 11:15 | 27.20568 | 103.68855 | 38267 ft | 531 kts | 22° |
| 2026-05-08 11:15 | 27.23868 | 103.70718 | 38452 ft | 530 kts | 22° |
| 2026-05-08 11:15 | 27.27161 | 103.72579 | 38599 ft | 530 kts | 22° |
| 2026-05-08 11:15 | 27.30442 | 103.74431 | 38769 ft | 529 kts | 22° |
| 2026-05-08 11:16 | 27.33734 | 103.76283 | 38930 ft | 528 kts | 21° |
| 2026-05-08 11:16 | 27.37057 | 103.77989 | 39112 ft | 525 kts | 19° |
| 2026-05-08 11:16 | 27.40379 | 103.79657 | 39206 ft | 526 kts | 20° |
| 2026-05-08 11:17 | 27.47020 | 103.83089 | 39302 ft | 527 kts | 20° |
| 2026-05-08 11:17 | 27.53659 | 103.86552 | 39309 ft | 525 kts | 21° |
| 2026-05-08 11:18 | 27.60263 | 103.90016 | 39309 ft | 525 kts | 21° |
| 2026-05-08 11:18 | 27.66882 | 103.93493 | 39305 ft | 526 kts | 21° |
| 2026-05-08 11:19 | 27.73492 | 103.96967 | 39305 ft | 526 kts | 21° |
| 2026-05-08 11:19 | 27.80110 | 104.00451 | 39302 ft | 526 kts | 20° |
| 2026-05-08 11:20 | 27.86721 | 104.03938 | 39302 ft | 526 kts | 21° |
| 2026-05-08 11:20 | 27.93335 | 104.07432 | 39308 ft | 525 kts | 21° |
| 2026-05-08 11:21 | 27.99938 | 104.10925 | 39305 ft | 525 kts | 21° |
| 2026-05-08 11:21 | 28.06547 | 104.14421 | 39306 ft | 525 kts | 20° |
| 2026-05-08 11:22 | 28.13157 | 104.17897 | 39307 ft | 525 kts | 20° |
| 2026-05-08 11:22 | 28.19737 | 104.21386 | 39288 ft | 524 kts | 20° |
| 2026-05-08 11:23 | 28.26340 | 104.24899 | 39288 ft | 524 kts | 20° |
| 2026-05-08 11:23 | 28.32932 | 104.28410 | 39286 ft | 524 kts | 20° |
| 2026-05-08 11:23 | 28.36289 | 104.29914 | 39274 ft | 516 kts | 9° |
| 2026-05-08 11:24 | 28.39793 | 104.30543 | 39300 ft | 508 kts | 359° |
| 2026-05-08 11:24 | 28.46830 | 104.30716 | 39290 ft | 505 kts | 352° |
| 2026-05-08 11:25 | 28.53809 | 104.30241 | 39285 ft | 502 kts | 351° |
| 2026-05-08 11:25 | 28.60761 | 104.29840 | 39286 ft | 501 kts | 352° |
| 2026-05-08 11:26 | 28.67722 | 104.29459 | 39284 ft | 502 kts | 352° |
| 2026-05-08 11:26 | 28.74677 | 104.29079 | 39282 ft | 502 kts | 352° |
| 2026-05-08 11:27 | 28.81647 | 104.28697 | 39283 ft | 502 kts | 352° |
| 2026-05-08 11:27 | 28.88599 | 104.28315 | 39281 ft | 502 kts | 352° |
| 2026-05-08 11:28 | 28.95565 | 104.27933 | 39282 ft | 502 kts | 352° |
| 2026-05-08 11:28 | 29.02527 | 104.27552 | 39280 ft | 502 kts | 352° |
| 2026-05-08 11:29 | 29.09479 | 104.27169 | 39280 ft | 502 kts | 352° |
| 2026-05-08 11:29 | 29.16438 | 104.26785 | 39279 ft | 502 kts | 352° |
| 2026-05-08 11:30 | 29.23399 | 104.26400 | 39278 ft | 502 kts | 352° |
| 2026-05-08 11:30 | 29.30380 | 104.26617 | 39278 ft | 506 kts | 1° |
| 2026-05-08 11:31 | 29.37365 | 104.27790 | 39277 ft | 510 kts | 4° |
| 2026-05-08 11:31 | 29.44375 | 104.29072 | 39277 ft | 511 kts | 4° |
| 2026-05-08 11:32 | 29.51383 | 104.30290 | 39277 ft | 511 kts | 4° |
| 2026-05-08 11:32 | 29.58393 | 104.31491 | 39275 ft | 510 kts | 4° |
| 2026-05-08 11:33 | 29.65402 | 104.32684 | 39276 ft | 510 kts | 3° |
| 2026-05-08 11:33 | 29.72123 | 104.33828 | 39275 ft | 510 kts | 4° |
| 2026-05-08 11:34 | 29.79125 | 104.35024 | 39274 ft | 510 kts | 4° |
| 2026-05-08 11:34 | 29.86122 | 104.36218 | 39275 ft | 510 kts | 4° |
| 2026-05-08 11:35 | 29.93140 | 104.37420 | 39273 ft | 510 kts | 4° |
| 2026-05-08 11:35 | 30.00141 | 104.38624 | 39274 ft | 510 kts | 4° |
| 2026-05-08 11:36 | 30.07145 | 104.39829 | 39273 ft | 510 kts | 4° |
| 2026-05-08 11:36 | 30.14150 | 104.41036 | 39273 ft | 510 kts | 4° |
| 2026-05-08 11:37 | 30.21150 | 104.42255 | 39272 ft | 510 kts | 4° |
| 2026-05-08 11:37 | 30.28149 | 104.43477 | 39272 ft | 510 kts | 4° |
| 2026-05-08 11:38 | 30.35150 | 104.44693 | 39272 ft | 510 kts | 4° |
| 2026-05-08 11:38 | 30.42148 | 104.45918 | 39272 ft | 510 kts | 4° |
| 2026-05-08 11:39 | 30.49152 | 104.47146 | 39271 ft | 510 kts | 4° |
| 2026-05-08 11:39 | 30.56156 | 104.48377 | 39272 ft | 510 kts | 4° |
| 2026-05-08 11:39 | 30.59598 | 104.49335 | 39276 ft | 514 kts | 16° |
| 2026-05-08 11:40 | 30.62863 | 104.51052 | 39282 ft | 519 kts | 22° |
| 2026-05-08 11:40 | 30.69103 | 104.55366 | 39281 ft | 527 kts | 30° |
| 2026-05-08 11:41 | 30.75164 | 104.60133 | 39286 ft | 528 kts | 30° |
| 2026-05-08 11:41 | 30.81285 | 104.64806 | 39289 ft | 527 kts | 29° |
| 2026-05-08 11:42 | 30.86026 | 104.69094 | 39312 ft | 530 kts | 44° |
| 2026-05-08 11:42 | 30.90596 | 104.75875 | 39255 ft | 537 kts | 54° |
| 2026-05-08 11:43 | 30.94592 | 104.83232 | 39246 ft | 540 kts | 56° |
| 2026-05-08 11:43 | 30.98581 | 104.90622 | 39254 ft | 541 kts | 55° |
| 2026-05-08 11:44 | 31.02616 | 104.97987 | 39268 ft | 541 kts | 55° |
| 2026-05-08 11:44 | 31.06680 | 105.05342 | 39278 ft | 543 kts | 54° |
| 2026-05-08 11:45 | 31.10780 | 105.12731 | 39292 ft | 544 kts | 55° |
| 2026-05-08 11:45 | 31.14838 | 105.20146 | 39327 ft | 543 kts | 55° |
| 2026-05-08 11:46 | 31.18885 | 105.27566 | 39324 ft | 543 kts | 55° |
| 2026-05-08 11:46 | 31.22943 | 105.35006 | 39332 ft | 543 kts | 55° |
| 2026-05-08 11:47 | 31.27124 | 105.42350 | 39311 ft | 543 kts | 53° |
| 2026-05-08 11:47 | 31.31336 | 105.49658 | 39286 ft | 543 kts | 54° |
| 2026-05-08 11:48 | 31.35527 | 105.57001 | 39292 ft | 543 kts | 54° |
| 2026-05-08 11:48 | 31.39710 | 105.64340 | 39296 ft | 543 kts | 54° |
| 2026-05-08 11:49 | 31.43890 | 105.71692 | 39306 ft | 543 kts | 54° |
| 2026-05-08 11:49 | 31.48064 | 105.79060 | 39300 ft | 543 kts | 54° |
| 2026-05-08 11:50 | 31.52230 | 105.86429 | 39273 ft | 544 kts | 54° |
| 2026-05-08 11:50 | 31.56387 | 105.93796 | 39278 ft | 544 kts | 54° |
| 2026-05-08 11:51 | 31.60569 | 106.01167 | 39285 ft | 544 kts | 54° |
| 2026-05-08 11:51 | 31.64741 | 106.08530 | 39305 ft | 543 kts | 54° |
| 2026-05-08 11:52 | 31.68898 | 106.15910 | 39295 ft | 543 kts | 54° |
| 2026-05-08 11:52 | 31.73066 | 106.23279 | 39318 ft | 543 kts | 54° |
| 2026-05-08 11:53 | 31.77211 | 106.30683 | 39339 ft | 543 kts | 54° |
| 2026-05-08 11:53 | 31.81344 | 106.38092 | 39319 ft | 543 kts | 54° |
| 2026-05-08 11:54 | 31.85475 | 106.45506 | 39313 ft | 543 kts | 54° |
| 2026-05-08 11:54 | 31.89607 | 106.52928 | 39277 ft | 543 kts | 54° |
| 2026-05-08 11:55 | 31.93732 | 106.60356 | 39279 ft | 544 kts | 54° |
| 2026-05-08 11:55 | 31.97850 | 106.67794 | 39284 ft | 544 kts | 54° |
| 2026-05-08 11:56 | 32.01968 | 106.75245 | 39286 ft | 544 kts | 54° |
| 2026-05-08 11:56 | 32.06078 | 106.82692 | 39297 ft | 544 kts | 54° |
| 2026-05-08 11:57 | 32.10231 | 106.90115 | 39320 ft | 544 kts | 54° |
| 2026-05-08 11:57 | 32.14355 | 106.97572 | 39330 ft | 543 kts | 54° |
| 2026-05-08 11:58 | 32.18452 | 107.05045 | 39309 ft | 544 kts | 55° |
| 2026-05-08 11:58 | 32.22545 | 107.12525 | 39309 ft | 543 kts | 55° |
| 2026-05-08 11:59 | 32.27911 | 107.24277 | 39309 ft | 546 kts | 67° |
| 2026-05-08 11:59 | 32.30458 | 107.32728 | 39303 ft | 547 kts | 70° |
| 2026-05-08 12:00 | 32.32970 | 107.41197 | 39289 ft | 547 kts | 69° |
| 2026-05-08 12:00 | 32.35535 | 107.49652 | 39288 ft | 547 kts | 69° |
| 2026-05-08 12:01 | 32.38109 | 107.58098 | 39287 ft | 547 kts | 69° |
| 2026-05-08 12:01 | 32.40717 | 107.66527 | 39287 ft | 547 kts | 69° |
| 2026-05-08 12:02 | 32.43322 | 107.74970 | 39286 ft | 547 kts | 69° |
| 2026-05-08 12:02 | 32.45881 | 107.83431 | 39285 ft | 547 kts | 69° |
| 2026-05-08 12:03 | 32.48329 | 107.91560 | 39284 ft | 547 kts | 69° |
| 2026-05-08 12:03 | 32.51895 | 107.99374 | 39281 ft | 539 kts | 45° |
| 2026-05-08 12:04 | 32.54672 | 108.02275 | 39284 ft | 531 kts | 30° |
| 2026-05-08 12:04 | 32.57860 | 108.04421 | 39284 ft | 527 kts | 21° |
| 2026-05-08 12:04 | 32.64645 | 108.07498 | 39279 ft | 520 kts | 12° |
| 2026-05-08 12:05 | 32.71572 | 108.09811 | 39271 ft | 517 kts | 10° |
| 2026-05-08 12:05 | 32.78453 | 108.12168 | 39266 ft | 515 kts | 11° |
| 2026-05-08 12:06 | 32.85301 | 108.14581 | 39258 ft | 513 kts | 11° |
| 2026-05-08 12:06 | 32.92135 | 108.16992 | 39258 ft | 514 kts | 11° |
| 2026-05-08 12:07 | 32.98968 | 108.19420 | 39252 ft | 513 kts | 11° |
| 2026-05-08 12:07 | 33.05775 | 108.21835 | 39250 ft | 511 kts | 11° |
| 2026-05-08 12:08 | 33.12594 | 108.24270 | 39255 ft | 514 kts | 11° |
| 2026-05-08 12:08 | 33.19417 | 108.26715 | 39249 ft | 511 kts | 11° |
| 2026-05-08 12:09 | 33.26205 | 108.29150 | 39250 ft | 511 kts | 11° |
| 2026-05-08 12:09 | 33.32996 | 108.31597 | 39247 ft | 512 kts | 11° |
| 2026-05-08 12:10 | 33.39721 | 108.34402 | 39247 ft | 513 kts | 14° |
| 2026-05-08 12:10 | 33.46425 | 108.37293 | 39246 ft | 514 kts | 14° |
| 2026-05-08 12:11 | 33.53143 | 108.40154 | 39245 ft | 514 kts | 13° |
| 2026-05-08 12:11 | 33.59867 | 108.43010 | 39237 ft | 513 kts | 13° |
| 2026-05-08 12:12 | 33.66584 | 108.45852 | 39233 ft | 512 kts | 13° |
| 2026-05-08 12:12 | 33.73296 | 108.48688 | 39227 ft | 512 kts | 13° |
| 2026-05-08 12:13 | 33.79998 | 108.51532 | 39186 ft | 510 kts | 13° |
| 2026-05-08 12:13 | 33.86655 | 108.54365 | 39196 ft | 506 kts | 13° |
| 2026-05-08 12:14 | 33.93274 | 108.57187 | 39193 ft | 504 kts | 13° |
| 2026-05-08 12:14 | 33.99846 | 108.59993 | 39181 ft | 501 kts | 13° |
| 2026-05-08 12:15 | 34.06401 | 108.62797 | 39181 ft | 500 kts | 13° |
| 2026-05-08 12:15 | 34.12953 | 108.65604 | 39182 ft | 500 kts | 13° |
| 2026-05-08 12:16 | 34.19505 | 108.68403 | 39182 ft | 500 kts | 12° |
| 2026-05-08 12:16 | 34.26046 | 108.71216 | 39182 ft | 500 kts | 13° |
| 2026-05-08 12:17 | 34.32597 | 108.74042 | 39182 ft | 501 kts | 13° |
| 2026-05-08 12:17 | 34.39144 | 108.76871 | 39183 ft | 501 kts | 13° |
| 2026-05-08 12:18 | 34.45686 | 108.79700 | 39182 ft | 500 kts | 13° |
| 2026-05-08 12:18 | 34.52232 | 108.82526 | 39182 ft | 500 kts | 13° |
| 2026-05-08 12:19 | 34.58777 | 108.85360 | 39182 ft | 500 kts | 13° |
| 2026-05-08 12:19 | 34.65323 | 108.88201 | 39181 ft | 501 kts | 13° |
| 2026-05-08 12:20 | 34.71879 | 108.91052 | 39181 ft | 501 kts | 13° |
| 2026-05-08 12:20 | 34.78437 | 108.93903 | 39181 ft | 501 kts | 13° |
| 2026-05-08 12:21 | 34.84991 | 108.96739 | 39178 ft | 502 kts | 13° |
| 2026-05-08 12:21 | 34.91557 | 108.99596 | 39178 ft | 502 kts | 13° |
| 2026-05-08 12:22 | 34.98125 | 109.02463 | 39178 ft | 502 kts | 13° |
| 2026-05-08 12:22 | 35.04686 | 109.05332 | 39175 ft | 503 kts | 13° |
| 2026-05-08 12:23 | 35.11253 | 109.08210 | 39174 ft | 503 kts | 13° |
| 2026-05-08 12:23 | 35.17845 | 109.11104 | 39168 ft | 505 kts | 13° |
| 2026-05-08 12:24 | 35.24451 | 109.14009 | 39166 ft | 506 kts | 13° |
| 2026-05-08 12:24 | 35.31061 | 109.16921 | 39164 ft | 506 kts | 13° |
| 2026-05-08 12:25 | 35.37682 | 109.19842 | 39157 ft | 507 kts | 13° |
| 2026-05-08 12:25 | 35.44304 | 109.22770 | 39157 ft | 507 kts | 13° |
| 2026-05-08 12:26 | 35.50922 | 109.25688 | 39156 ft | 507 kts | 13° |
| 2026-05-08 12:26 | 35.57544 | 109.28623 | 39147 ft | 507 kts | 14° |
| 2026-05-08 12:27 | 35.64168 | 109.31572 | 39144 ft | 507 kts | 14° |
| 2026-05-08 12:27 | 35.70784 | 109.34524 | 39132 ft | 507 kts | 14° |
| 2026-05-08 12:28 | 35.77116 | 109.38361 | 39120 ft | 518 kts | 34° |
| 2026-05-08 12:28 | 35.82158 | 109.44811 | 39140 ft | 530 kts | 47° |
| 2026-05-08 12:29 | 35.86517 | 109.52180 | 39149 ft | 535 kts | 52° |
| 2026-05-08 12:29 | 35.90778 | 109.59674 | 39133 ft | 534 kts | 51° |
| 2026-05-08 12:30 | 35.95090 | 109.67096 | 39122 ft | 534 kts | 51° |
| 2026-05-08 12:30 | 35.99427 | 109.74506 | 39124 ft | 534 kts | 50° |
| 2026-05-08 12:31 | 36.03801 | 109.81893 | 39115 ft | 534 kts | 51° |
| 2026-05-08 12:31 | 36.08121 | 109.89322 | 39104 ft | 533 kts | 51° |
| 2026-05-08 12:32 | 36.12421 | 109.96750 | 39109 ft | 533 kts | 51° |
| 2026-05-08 12:32 | 36.16730 | 110.04201 | 39111 ft | 534 kts | 51° |
| 2026-05-08 12:33 | 36.20776 | 110.11212 | 39108 ft | 533 kts | 51° |
| 2026-05-08 12:33 | 36.25065 | 110.18677 | 39107 ft | 533 kts | 51° |
| 2026-05-08 12:34 | 36.29349 | 110.26161 | 39108 ft | 533 kts | 51° |
| 2026-05-08 12:34 | 36.33627 | 110.33650 | 39108 ft | 533 kts | 51° |
| 2026-05-08 12:35 | 36.37900 | 110.41145 | 39112 ft | 533 kts | 51° |
| 2026-05-08 12:35 | 36.42206 | 110.48626 | 39110 ft | 533 kts | 51° |
| 2026-05-08 12:36 | 36.46488 | 110.56116 | 39108 ft | 533 kts | 51° |
| 2026-05-08 12:36 | 36.50753 | 110.63614 | 39110 ft | 532 kts | 51° |
| 2026-05-08 12:37 | 36.55038 | 110.71117 | 39116 ft | 534 kts | 51° |
| 2026-05-08 12:37 | 36.59303 | 110.78652 | 39108 ft | 532 kts | 51° |
| 2026-05-08 12:38 | 36.63533 | 110.86170 | 39107 ft | 531 kts | 51° |
| 2026-05-08 12:38 | 36.67765 | 110.93707 | 39113 ft | 533 kts | 51° |
| 2026-05-08 12:39 | 36.72114 | 111.01159 | 39114 ft | 532 kts | 47° |
| 2026-05-08 12:39 | 36.76985 | 111.08024 | 39111 ft | 528 kts | 43° |
| 2026-05-08 12:40 | 36.81929 | 111.14758 | 39111 ft | 527 kts | 44° |
| 2026-05-08 12:40 | 36.86813 | 111.21531 | 39111 ft | 525 kts | 44° |
| 2026-05-08 12:41 | 36.91668 | 111.28303 | 39110 ft | 523 kts | 44° |
| 2026-05-08 12:41 | 36.96532 | 111.35061 | 39105 ft | 522 kts | 43° |
| 2026-05-08 12:42 | 37.01373 | 111.41795 | 39104 ft | 521 kts | 43° |
| 2026-05-08 12:42 | 37.06206 | 111.48529 | 39106 ft | 521 kts | 43° |
| 2026-05-08 12:43 | 37.11036 | 111.55291 | 39107 ft | 522 kts | 43° |
| 2026-05-08 12:43 | 37.15847 | 111.62078 | 39108 ft | 522 kts | 43° |
| 2026-05-08 12:44 | 37.20652 | 111.68873 | 39110 ft | 523 kts | 44° |
| 2026-05-08 12:44 | 37.25421 | 111.75755 | 39109 ft | 525 kts | 47° |
| 2026-05-08 12:45 | 37.29079 | 111.83704 | 39114 ft | 532 kts | 62° |
| 2026-05-08 12:45 | 37.32340 | 111.92042 | 39115 ft | 534 kts | 59° |
| 2026-05-08 12:46 | 37.35732 | 112.00327 | 39114 ft | 534 kts | 59° |
| 2026-05-08 12:46 | 37.39103 | 112.08618 | 39117 ft | 534 kts | 59° |
| 2026-05-08 12:47 | 37.42497 | 112.16911 | 39117 ft | 534 kts | 59° |
| 2026-05-08 12:47 | 37.45892 | 112.25202 | 39119 ft | 534 kts | 59° |
| 2026-05-08 12:48 | 37.49251 | 112.33537 | 39120 ft | 534 kts | 60° |
| 2026-05-08 12:48 | 37.52601 | 112.41876 | 39121 ft | 535 kts | 60° |
| 2026-05-08 12:49 | 37.55951 | 112.50220 | 39122 ft | 535 kts | 60° |
| 2026-05-08 12:49 | 37.59313 | 112.58570 | 39122 ft | 535 kts | 60° |
| 2026-05-08 12:50 | 37.62660 | 112.66935 | 39123 ft | 535 kts | 60° |
| 2026-05-08 12:50 | 37.66028 | 112.75294 | 39123 ft | 535 kts | 60° |
| 2026-05-08 12:51 | 37.71038 | 112.87862 | 39122 ft | 536 kts | 60° |
| 2026-05-08 12:52 | 37.74372 | 112.96260 | 39121 ft | 536 kts | 60° |
| 2026-05-08 12:52 | 37.79350 | 113.08870 | 39117 ft | 535 kts | 60° |
| 2026-05-08 12:53 | 37.82699 | 113.17250 | 39116 ft | 535 kts | 60° |
| 2026-05-08 12:53 | 37.86019 | 113.25647 | 39111 ft | 535 kts | 60° |
| 2026-05-08 12:54 | 37.89314 | 113.34073 | 39105 ft | 535 kts | 60° |
| 2026-05-08 12:54 | 37.92601 | 113.42498 | 39102 ft | 536 kts | 60° |
| 2026-05-08 12:55 | 37.95899 | 113.50963 | 39088 ft | 537 kts | 60° |
| 2026-05-08 12:55 | 37.99189 | 113.59458 | 39087 ft | 538 kts | 60° |
| 2026-05-08 12:56 | 38.02466 | 113.67954 | 39085 ft | 537 kts | 60° |
| 2026-05-08 12:56 | 38.05768 | 113.76469 | 39073 ft | 540 kts | 59° |
| 2026-05-08 12:57 | 38.09093 | 113.84998 | 39064 ft | 540 kts | 60° |
| 2026-05-08 12:57 | 38.12372 | 113.93567 | 39054 ft | 541 kts | 60° |
| 2026-05-08 12:58 | 38.15649 | 114.02163 | 39054 ft | 542 kts | 60° |
| 2026-05-08 12:58 | 38.18912 | 114.10725 | 39053 ft | 539 kts | 60° |
| 2026-05-08 12:59 | 38.22182 | 114.19283 | 39046 ft | 541 kts | 60° |
| 2026-05-08 12:59 | 38.25463 | 114.27901 | 39042 ft | 542 kts | 60° |
| 2026-05-08 13:00 | 38.28741 | 114.36515 | 39040 ft | 541 kts | 59° |
| 2026-05-08 13:00 | 38.32058 | 114.45096 | 39037 ft | 542 kts | 60° |
| 2026-05-08 13:01 | 38.35323 | 114.53738 | 39038 ft | 542 kts | 60° |
| 2026-05-08 13:01 | 38.38569 | 114.62371 | 39037 ft | 541 kts | 60° |
| 2026-05-08 13:02 | 38.41815 | 114.71005 | 39036 ft | 542 kts | 60° |
| 2026-05-08 13:02 | 38.45048 | 114.79684 | 39037 ft | 542 kts | 60° |
| 2026-05-08 13:03 | 38.47981 | 114.87463 | 39038 ft | 542 kts | 60° |
| 2026-05-08 13:03 | 38.51203 | 114.96133 | 39038 ft | 542 kts | 60° |
| 2026-05-08 13:04 | 38.54425 | 115.04816 | 39040 ft | 542 kts | 60° |
| 2026-05-08 13:04 | 38.57637 | 115.13501 | 39041 ft | 542 kts | 61° |
| 2026-05-08 13:05 | 38.60837 | 115.22209 | 39044 ft | 542 kts | 61° |
| 2026-05-08 13:05 | 38.64060 | 115.30908 | 39045 ft | 542 kts | 61° |
| 2026-05-08 13:06 | 38.67252 | 115.39623 | 39045 ft | 542 kts | 61° |
| 2026-05-08 13:06 | 38.70430 | 115.48331 | 39049 ft | 541 kts | 61° |
| 2026-05-08 13:07 | 38.73836 | 115.56883 | 39051 ft | 539 kts | 56° |
| 2026-05-08 13:07 | 38.77670 | 115.65104 | 39054 ft | 537 kts | 55° |
| 2026-05-08 13:08 | 38.81474 | 115.73316 | 39056 ft | 536 kts | 55° |
| 2026-05-08 13:08 | 38.85241 | 115.81547 | 39061 ft | 536 kts | 56° |
| 2026-05-08 13:09 | 38.88996 | 115.89791 | 39062 ft | 536 kts | 56° |
| 2026-05-08 13:09 | 38.92778 | 115.97988 | 39064 ft | 535 kts | 55° |
| 2026-05-08 13:10 | 38.96545 | 116.06231 | 39072 ft | 534 kts | 56° |
| 2026-05-08 13:10 | 39.00273 | 116.14443 | 39073 ft | 533 kts | 56° |
| 2026-05-08 13:11 | 39.04002 | 116.22662 | 39074 ft | 533 kts | 56° |
| 2026-05-08 13:11 | 39.07746 | 116.30892 | 39078 ft | 533 kts | 56° |
| 2026-05-08 13:12 | 39.11440 | 116.39129 | 39080 ft | 532 kts | 56° |
| 2026-05-08 13:12 | 39.15125 | 116.47373 | 39083 ft | 532 kts | 56° |
| 2026-05-08 13:13 | 39.18459 | 116.53778 | 39105 ft | 522 kts | 41° |
| 2026-05-08 13:13 | 39.21228 | 116.56720 | 39112 ft | 512 kts | 27° |
| 2026-05-08 13:13 | 39.23447 | 116.58362 | 39114 ft | 511 kts | 22° |
| 2026-05-08 13:14 | 39.29843 | 116.62132 | 39109 ft | 503 kts | 15° |
| 2026-05-08 13:14 | 39.36410 | 116.65126 | 39105 ft | 499 kts | 13° |
| 2026-05-08 13:15 | 39.42903 | 116.68089 | 39085 ft | 494 kts | 13° |
| 2026-05-08 13:15 | 39.49341 | 116.71087 | 39088 ft | 492 kts | 13° |
| 2026-05-08 13:16 | 39.55783 | 116.74063 | 39101 ft | 495 kts | 13° |
| 2026-05-08 13:16 | 39.62232 | 116.77087 | 39085 ft | 493 kts | 13° |
| 2026-05-08 13:17 | 39.68672 | 116.80120 | 39087 ft | 492 kts | 13° |
| 2026-05-08 13:17 | 39.75100 | 116.83154 | 39078 ft | 493 kts | 13° |
| 2026-05-08 13:18 | 39.78469 | 116.84743 | 39072 ft | 493 kts | 13° |
| 2026-05-08 13:18 | 39.84922 | 116.87750 | 39072 ft | 494 kts | 12° |
| 2026-05-08 13:19 | 39.91379 | 116.90730 | 39070 ft | 494 kts | 12° |
| 2026-05-08 13:19 | 39.97840 | 116.93726 | 39066 ft | 494 kts | 12° |
| 2026-05-08 13:20 | 40.04303 | 116.96731 | 39074 ft | 494 kts | 12° |
| 2026-05-08 13:20 | 40.10749 | 116.99734 | 39071 ft | 494 kts | 12° |
| 2026-05-08 13:21 | 40.17217 | 117.02729 | 39070 ft | 494 kts | 12° |
| 2026-05-08 13:21 | 40.23677 | 117.05734 | 39072 ft | 494 kts | 12° |
| 2026-05-08 13:22 | 40.30134 | 117.08750 | 39070 ft | 494 kts | 12° |
| 2026-05-08 13:22 | 40.36592 | 117.11776 | 39071 ft | 494 kts | 12° |
| 2026-05-08 13:23 | 40.43047 | 117.14796 | 39072 ft | 494 kts | 12° |
| 2026-05-08 13:23 | 40.49513 | 117.17830 | 39071 ft | 494 kts | 12° |
| 2026-05-08 13:24 | 40.55966 | 117.20879 | 39075 ft | 494 kts | 13° |
| 2026-05-08 13:24 | 40.62426 | 117.23938 | 39074 ft | 494 kts | 13° |
| 2026-05-08 13:25 | 40.68880 | 117.26997 | 39074 ft | 494 kts | 13° |
| 2026-05-08 13:25 | 40.75321 | 117.30137 | 39075 ft | 495 kts | 14° |
| 2026-05-08 13:26 | 40.81736 | 117.33416 | 39075 ft | 496 kts | 14° |
| 2026-05-08 13:26 | 40.88156 | 117.36696 | 39076 ft | 496 kts | 14° |
| 2026-05-08 13:27 | 40.94575 | 117.39980 | 39076 ft | 496 kts | 14° |
| 2026-05-08 13:27 | 41.00585 | 117.44525 | 39069 ft | 516 kts | 38° |
| 2026-05-08 13:28 | 41.02861 | 117.48202 | 39077 ft | 522 kts | 53° |
| 2026-05-08 13:28 | 41.04441 | 117.52551 | 39086 ft | 528 kts | 65° |
| 2026-05-08 13:28 | 41.06311 | 117.62008 | 39080 ft | 538 kts | 77° |
| 2026-05-08 13:29 | 41.07726 | 117.71768 | 39081 ft | 544 kts | 76° |
| 2026-05-08 13:29 | 41.09245 | 117.81600 | 39079 ft | 545 kts | 76° |
| 2026-05-08 13:30 | 41.10767 | 117.91387 | 39080 ft | 543 kts | 76° |
| 2026-05-08 13:30 | 41.12292 | 118.01200 | 39081 ft | 543 kts | 75° |
| 2026-05-08 13:31 | 41.13994 | 118.10929 | 39081 ft | 542 kts | 72° |
| 2026-05-08 13:31 | 41.15994 | 118.20551 | 39081 ft | 542 kts | 71° |
| 2026-05-08 13:32 | 41.17956 | 118.30164 | 39081 ft | 541 kts | 72° |
| 2026-05-08 13:32 | 41.19854 | 118.39831 | 39096 ft | 542 kts | 72° |
| 2026-05-08 13:33 | 41.21560 | 118.48571 | 39098 ft | 542 kts | 72° |
| 2026-05-08 13:33 | 41.23447 | 118.58236 | 39098 ft | 542 kts | 72° |
| 2026-05-08 13:34 | 41.25185 | 118.67966 | 39099 ft | 542 kts | 75° |
| 2026-05-08 13:34 | 41.26796 | 118.77733 | 39098 ft | 542 kts | 75° |
| 2026-05-08 13:35 | 41.28419 | 118.87506 | 39098 ft | 542 kts | 75° |
| 2026-05-08 13:35 | 41.30041 | 118.97275 | 39098 ft | 542 kts | 75° |
| 2026-05-08 13:36 | 41.31676 | 119.07037 | 39098 ft | 542 kts | 74° |
| 2026-05-08 13:36 | 41.33355 | 119.16801 | 39098 ft | 542 kts | 74° |
| 2026-05-08 13:37 | 41.34989 | 119.26561 | 39098 ft | 542 kts | 75° |
| 2026-05-08 13:37 | 41.36608 | 119.36350 | 39099 ft | 543 kts | 75° |
| 2026-05-08 13:38 | 41.38215 | 119.46141 | 39098 ft | 543 kts | 75° |
| 2026-05-08 13:38 | 41.39816 | 119.55950 | 39099 ft | 542 kts | 76° |
| 2026-05-08 13:39 | 41.41408 | 119.65766 | 39102 ft | 544 kts | 75° |
| 2026-05-08 13:39 | 41.42993 | 119.75598 | 39100 ft | 543 kts | 75° |
| 2026-05-08 13:40 | 41.44566 | 119.85409 | 39112 ft | 542 kts | 76° |
| 2026-05-08 13:40 | 41.46129 | 119.95211 | 39116 ft | 542 kts | 76° |
| 2026-05-08 13:41 | 41.47703 | 120.04982 | 39164 ft | 536 kts | 75° |
| 2026-05-08 13:41 | 41.49246 | 120.14678 | 39157 ft | 537 kts | 76° |
| 2026-05-08 13:42 | 41.50755 | 120.24415 | 39158 ft | 538 kts | 76° |
| 2026-05-08 13:42 | 41.52257 | 120.34157 | 39170 ft | 536 kts | 76° |
| 2026-05-08 13:43 | 41.53677 | 120.43880 | 39169 ft | 535 kts | 80° |
| 2026-05-08 13:43 | 41.54339 | 120.53766 | 39174 ft | 536 kts | 85° |
| 2026-05-08 13:44 | 41.54757 | 120.63693 | 39174 ft | 536 kts | 85° |
| 2026-05-08 13:44 | 41.55240 | 120.73600 | 39175 ft | 536 kts | 85° |
| 2026-05-08 13:45 | 41.55811 | 120.83498 | 38936 ft | 533 kts | 84° |
| 2026-05-08 13:45 | 41.56065 | 120.88370 | 38620 ft | 524 kts | 85° |
| 2026-05-08 13:45 | 41.56302 | 120.93178 | 38292 ft | 515 kts | 85° |
| 2026-05-08 13:46 | 41.56529 | 120.97889 | 37966 ft | 507 kts | 85° |
| 2026-05-08 13:46 | 41.56751 | 121.02543 | 37640 ft | 500 kts | 85° |
| 2026-05-08 13:46 | 41.56969 | 121.07140 | 37315 ft | 496 kts | 85° |
| 2026-05-08 13:46 | 41.57186 | 121.11720 | 36989 ft | 493 kts | 85° |
| 2026-05-08 13:47 | 41.57402 | 121.16250 | 36665 ft | 490 kts | 85° |
| 2026-05-08 13:47 | 41.57604 | 121.20789 | 36339 ft | 487 kts | 86° |
| 2026-05-08 13:47 | 41.57735 | 121.25278 | 36014 ft | 484 kts | 87° |
| 2026-05-08 13:47 | 41.57843 | 121.29746 | 35690 ft | 482 kts | 87° |
| 2026-05-08 13:48 | 41.57954 | 121.34202 | 35364 ft | 479 kts | 87° |
| 2026-05-08 13:48 | 41.58067 | 121.38628 | 35039 ft | 477 kts | 86° |
| 2026-05-08 13:48 | 41.58179 | 121.43032 | 34714 ft | 474 kts | 86° |
| 2026-05-08 13:48 | 41.58292 | 121.47418 | 34389 ft | 472 kts | 86° |
| 2026-05-08 13:49 | 41.58403 | 121.51783 | 34064 ft | 470 kts | 86° |
| 2026-05-08 13:49 | 41.58513 | 121.56125 | 33738 ft | 468 kts | 86° |
| 2026-05-08 13:49 | 41.58621 | 121.60445 | 33413 ft | 465 kts | 86° |
| 2026-05-08 13:49 | 41.58731 | 121.64742 | 33088 ft | 463 kts | 86° |
| 2026-05-08 13:50 | 41.58880 | 121.69012 | 32764 ft | 461 kts | 85° |
| 2026-05-08 13:50 | 41.59034 | 121.73273 | 32439 ft | 458 kts | 85° |
| 2026-05-08 13:50 | 41.59153 | 121.77506 | 32114 ft | 456 kts | 86° |
| 2026-05-08 13:50 | 41.59256 | 121.81724 | 31788 ft | 454 kts | 86° |
| 2026-05-08 13:51 | 41.59352 | 121.85924 | 31463 ft | 452 kts | 86° |
| 2026-05-08 13:51 | 41.59445 | 121.90091 | 31139 ft | 450 kts | 86° |
| 2026-05-08 13:51 | 41.59535 | 121.94254 | 30814 ft | 448 kts | 86° |
| 2026-05-08 13:51 | 41.59624 | 121.98395 | 30489 ft | 446 kts | 86° |
| 2026-05-08 13:52 | 41.59713 | 122.02519 | 30163 ft | 444 kts | 86° |
| 2026-05-08 13:52 | 41.59801 | 122.06617 | 29838 ft | 441 kts | 85° |
| 2026-05-08 13:52 | 41.59809 | 122.10697 | 29506 ft | 440 kts | 90° |
| 2026-05-08 13:52 | 41.59545 | 122.14751 | 29186 ft | 438 kts | 95° |
| 2026-05-08 13:53 | 41.59123 | 122.18749 | 28859 ft | 434 kts | 97° |
| 2026-05-08 13:53 | 41.58631 | 122.22707 | 28534 ft | 431 kts | 97° |
| 2026-05-08 13:53 | 41.58149 | 122.26640 | 28209 ft | 429 kts | 97° |
| 2026-05-08 13:53 | 41.57685 | 122.30564 | 27885 ft | 428 kts | 96° |
| 2026-05-08 13:54 | 41.57234 | 122.34460 | 27561 ft | 426 kts | 96° |
| 2026-05-08 13:54 | 41.56790 | 122.38363 | 27235 ft | 423 kts | 95° |
| 2026-05-08 13:54 | 41.56392 | 122.42220 | 26911 ft | 420 kts | 94° |
| 2026-05-08 13:54 | 41.55979 | 122.46081 | 26583 ft | 418 kts | 95° |
| 2026-05-08 13:55 | 41.55553 | 122.49896 | 26258 ft | 416 kts | 95° |
| 2026-05-08 13:55 | 41.55120 | 122.53694 | 25933 ft | 413 kts | 95° |
| 2026-05-08 13:55 | 41.54251 | 122.61220 | 25283 ft | 409 kts | 94° |
| 2026-05-08 13:56 | 41.53818 | 122.64946 | 24958 ft | 406 kts | 94° |
| 2026-05-08 13:56 | 41.53387 | 122.68653 | 24632 ft | 403 kts | 94° |
| 2026-05-08 13:56 | 41.52958 | 122.72332 | 24307 ft | 401 kts | 94° |
| 2026-05-08 13:56 | 41.52533 | 122.75982 | 24001 ft | 397 kts | 92° |
| 2026-05-08 13:57 | 41.52112 | 122.79602 | 23654 ft | 393 kts | 92° |
| 2026-05-08 13:57 | 41.51703 | 122.83171 | 23278 ft | 388 kts | 92° |
| 2026-05-08 13:57 | 41.51302 | 122.86700 | 22900 ft | 383 kts | 92° |
| 2026-05-08 13:57 | 41.50896 | 122.90185 | 22523 ft | 378 kts | 92° |
| 2026-05-08 13:58 | 41.50490 | 122.93619 | 22145 ft | 373 kts | 92° |
| 2026-05-08 13:58 | 41.50087 | 122.97010 | 21770 ft | 369 kts | 93° |
| 2026-05-08 13:58 | 41.49688 | 123.00365 | 21393 ft | 364 kts | 93° |
| 2026-05-08 13:58 | 41.49293 | 123.03678 | 21017 ft | 360 kts | 93° |
| 2026-05-08 13:59 | 41.48904 | 123.06948 | 20642 ft | 356 kts | 93° |
| 2026-05-08 13:59 | 41.48520 | 123.10180 | 20267 ft | 352 kts | 93° |
| 2026-05-08 13:59 | 41.48138 | 123.13378 | 19886 ft | 348 kts | 94° |
| 2026-05-08 13:59 | 41.47754 | 123.16540 | 19512 ft | 345 kts | 94° |
| 2026-05-08 14:00 | 41.47375 | 123.19676 | 19140 ft | 341 kts | 93° |
| 2026-05-08 14:00 | 41.47277 | 123.22789 | 18778 ft | 334 kts | 79° |
| 2026-05-08 14:00 | 41.47624 | 123.25807 | 18414 ft | 328 kts | 71° |
| 2026-05-08 14:00 | 41.48181 | 123.28729 | 18038 ft | 323 kts | 66° |
| 2026-05-08 14:01 | 41.48767 | 123.31259 | 17705 ft | 319 kts | 65° |
| 2026-05-08 14:01 | 41.49404 | 123.34084 | 17329 ft | 317 kts | 66° |
| 2026-05-08 14:01 | 41.50007 | 123.36894 | 16954 ft | 314 kts | 67° |
| 2026-05-08 14:01 | 41.50616 | 123.39660 | 16582 ft | 309 kts | 64° |
| 2026-05-08 14:02 | 41.51433 | 123.42281 | 16213 ft | 304 kts | 57° |
| 2026-05-08 14:02 | 41.52416 | 123.44753 | 15839 ft | 300 kts | 53° |
| 2026-05-08 14:02 | 41.53455 | 123.47139 | 15465 ft | 297 kts | 53° |
| 2026-05-08 14:02 | 41.54462 | 123.49526 | 15090 ft | 295 kts | 54° |
| 2026-05-08 14:03 | 41.55439 | 123.51917 | 14716 ft | 293 kts | 55° |
| 2026-05-08 14:03 | 41.56406 | 123.54299 | 14340 ft | 291 kts | 55° |
| 2026-05-08 14:03 | 41.57454 | 123.56569 | 13970 ft | 285 kts | 49° |
| 2026-05-08 14:03 | 41.58677 | 123.58619 | 13598 ft | 281 kts | 43° |
| 2026-05-08 14:04 | 41.59980 | 123.60535 | 13215 ft | 279 kts | 41° |
| 2026-05-08 14:04 | 41.61287 | 123.62436 | 12816 ft | 278 kts | 41° |
| 2026-05-08 14:04 | 41.62570 | 123.64359 | 12416 ft | 277 kts | 41° |
| 2026-05-08 14:04 | 41.63839 | 123.66281 | 12017 ft | 276 kts | 42° |
| 2026-05-08 14:05 | 41.65108 | 123.68198 | 11617 ft | 275 kts | 42° |
| 2026-05-08 14:05 | 41.66373 | 123.70099 | 11217 ft | 274 kts | 42° |
| 2026-05-08 14:05 | 41.67635 | 123.71999 | 10817 ft | 273 kts | 42° |
| 2026-05-08 14:05 | 41.68886 | 123.73896 | 10418 ft | 272 kts | 43° |
| 2026-05-08 14:06 | 41.70130 | 123.75797 | 10023 ft | 271 kts | 43° |
| 2026-05-08 14:06 | 41.71359 | 123.77676 | 9675 ft | 266 kts | 43° |
| 2026-05-08 14:06 | 41.72557 | 123.79514 | 9338 ft | 260 kts | 43° |
| 2026-05-08 14:06 | 41.73742 | 123.81322 | 8960 ft | 258 kts | 43° |
| 2026-05-08 14:07 | 41.74921 | 123.83120 | 8505 ft | 256 kts | 43° |
| 2026-05-08 14:07 | 41.76031 | 123.84971 | 8102 ft | 256 kts | 47° |
| 2026-05-08 14:07 | 41.77089 | 123.86884 | 7704 ft | 256 kts | 48° |
| 2026-05-08 14:07 | 41.78135 | 123.88798 | 7306 ft | 255 kts | 48° |
| 2026-05-08 14:08 | 41.79180 | 123.90704 | 6906 ft | 254 kts | 48° |
| 2026-05-08 14:08 | 41.80220 | 123.92593 | 6507 ft | 252 kts | 48° |
| 2026-05-08 14:08 | 41.81259 | 123.94476 | 6106 ft | 251 kts | 48° |
| 2026-05-08 14:08 | 41.82294 | 123.96347 | 5707 ft | 250 kts | 48° |
| 2026-05-08 14:09 | 41.83323 | 123.98200 | 5308 ft | 248 kts | 48° |
| 2026-05-08 14:09 | 41.84353 | 124.00049 | 4908 ft | 247 kts | 48° |
| 2026-05-08 14:09 | 41.85381 | 124.01880 | 4507 ft | 246 kts | 48° |
| 2026-05-08 14:09 | 41.86422 | 124.03696 | 4107 ft | 246 kts | 48° |
| 2026-05-08 14:10 | 41.87488 | 124.05479 | 3706 ft | 245 kts | 45° |
| 2026-05-08 14:10 | 41.88853 | 124.06782 | 3301 ft | 241 kts | 19° |
| 2026-05-08 14:10 | 41.90480 | 124.06979 | 3095 ft | 237 kts | 349° |
| 2026-05-08 14:10 | 41.91931 | 124.06045 | 3029 ft | 233 kts | 320° |
| 2026-05-08 14:11 | 41.92825 | 124.04273 | 3017 ft | 230 kts | 293° |
| 2026-05-08 14:11 | 41.93265 | 124.02226 | 2991 ft | 228 kts | 284° |
| 2026-05-08 14:11 | 41.93612 | 124.00144 | 2993 ft | 229 kts | 282° |
| 2026-05-08 14:11 | 41.93926 | 123.98051 | 3004 ft | 230 kts | 282° |
| 2026-05-08 14:12 | 41.94233 | 123.95950 | 2991 ft | 230 kts | 282° |
| 2026-05-08 14:12 | 41.94536 | 123.93850 | 2998 ft | 230 kts | 281° |
| 2026-05-08 14:12 | 41.94495 | 123.91746 | 2986 ft | 226 kts | 257° |
| 2026-05-08 14:12 | 41.93702 | 123.89977 | 3004 ft | 218 kts | 232° |
| 2026-05-08 14:13 | 41.92657 | 123.88643 | 2986 ft | 199 kts | 225° |
| 2026-05-08 14:13 | 41.91626 | 123.87450 | 3014 ft | 195 kts | 223° |
| 2026-05-08 14:13 | 41.90590 | 123.86291 | 3033 ft | 194 kts | 223° |
| 2026-05-08 14:13 | 41.89533 | 123.85169 | 3031 ft | 195 kts | 220° |
| 2026-05-08 14:14 | 41.88435 | 123.84093 | 3008 ft | 196 kts | 219° |
| 2026-05-08 14:14 | 41.87336 | 123.83011 | 3000 ft | 196 kts | 220° |
| 2026-05-08 14:14 | 41.86326 | 123.81796 | 3002 ft | 195 kts | 227° |
| 2026-05-08 14:14 | 41.85382 | 123.80489 | 2999 ft | 195 kts | 230° |
| 2026-05-08 14:15 | 41.84473 | 123.79145 | 2999 ft | 194 kts | 231° |
| 2026-05-08 14:15 | 41.83576 | 123.77800 | 2999 ft | 194 kts | 231° |
| 2026-05-08 14:15 | 41.82676 | 123.76454 | 2999 ft | 193 kts | 231° |
| 2026-05-08 14:15 | 41.81780 | 123.75116 | 2999 ft | 193 kts | 231° |
| 2026-05-08 14:16 | 41.80880 | 123.73774 | 3001 ft | 194 kts | 231° |
| 2026-05-08 14:16 | 41.79979 | 123.72432 | 3001 ft | 194 kts | 231° |
| 2026-05-08 14:16 | 41.79086 | 123.71101 | 2995 ft | 189 kts | 231° |
| 2026-05-08 14:16 | 41.78214 | 123.69804 | 2997 ft | 186 kts | 231° |
| 2026-05-08 14:17 | 41.77356 | 123.68528 | 2997 ft | 184 kts | 231° |
| 2026-05-08 14:17 | 41.76499 | 123.67252 | 3002 ft | 185 kts | 231° |
| 2026-05-08 14:17 | 41.75641 | 123.65976 | 3001 ft | 185 kts | 231° |
| 2026-05-08 14:17 | 41.74784 | 123.64703 | 3001 ft | 185 kts | 231° |
| 2026-05-08 14:18 | 41.73930 | 123.63433 | 2881 ft | 183 kts | 231° |
| 2026-05-08 14:18 | 41.73119 | 123.62229 | 2627 ft | 166 kts | 231° |
| 2026-05-08 14:18 | 41.72377 | 123.61128 | 2389 ft | 155 kts | 231° |
| 2026-05-08 14:18 | 41.71664 | 123.60069 | 2186 ft | 153 kts | 230° |
| 2026-05-08 14:19 | 41.70946 | 123.59003 | 1988 ft | 155 kts | 230° |
| 2026-05-08 14:19 | 41.70229 | 123.57938 | 1784 ft | 153 kts | 230° |
| 2026-05-08 14:19 | 41.69523 | 123.56891 | 1581 ft | 151 kts | 230° |
| 2026-05-08 14:19 | 41.68825 | 123.55856 | 1382 ft | 149 kts | 230° |
| 2026-05-08 14:20 | 41.68135 | 123.54832 | 1185 ft | 148 kts | 230° |
| 2026-05-08 14:20 | 41.67451 | 123.53818 | 991 ft | 146 kts | 229° |
| 2026-05-08 14:20 | 41.66777 | 123.52818 | 797 ft | 145 kts | 228° |
| 2026-05-08 14:20 | 41.66098 | 123.51819 | 609 ft | 147 kts | 227° |
| 2026-05-08 14:21 | 41.65404 | 123.50804 | 411 ft | 149 kts | 227° |
| 2026-05-08 14:21 | 41.64713 | 123.49778 | 229 ft | 148 kts | 228° |
| 2026-05-08 14:21 | 41.64069 | 123.48808 | 211 ft | 120 kts | 227° |
| 2026-05-08 14:21 | 41.63674 | 123.48235 | 210 ft | 45 kts | 227° |